Time;durP1;ratioP1;P1;durP2;ratioP2;P2;SDS_P1;SDS_P2;PMS_P1;PMS_P2;Temp;Humidity;BMP_temperature;BMP_pressure;BME280_temperature;BME280_humidity;BME280_pressure;Samples;Min_cycle;Max_cycle;Signal;HPM_P1;HPM_P2
2022/07/02 00:01:30;;;;;;;13.57;12.87;;;14.40;99.90;;;;;;4981218;28;20447;-76
2022/07/02 00:04:04;;;;;;;13.90;13.10;;;14.40;99.90;;;;;;4982385;28;20506;-76
2022/07/02 00:06:32;;;;;;;14.00;13.30;;;14.40;99.90;;;;;;4980097;28;20922;-76
2022/07/02 00:09:01;;;;;;;13.40;12.70;;;14.40;99.90;;;;;;4982699;28;20957;-76
2022/07/02 00:11:28;;;;;;;13.67;12.87;;;14.40;99.90;;;;;;4980837;28;20902;-75
2022/07/02 00:13:55;;;;;;;13.63;12.83;;;14.40;99.90;;;;;;4992096;28;20446;-75
2022/07/02 00:16:23;;;;;;;14.70;13.90;;;14.30;99.90;;;;;;4992321;28;20458;-75
2022/07/02 00:18:50;;;;;;;14.77;14.07;;;14.30;99.90;;;;;;4992116;28;20521;-75
2022/07/02 00:21:19;;;;;;;14.80;14.00;;;14.30;99.90;;;;;;4992127;28;20446;-76
2022/07/02 00:23:46;;;;;;;15.20;14.00;;;14.20;99.90;;;;;;4992201;28;20956;-75
2022/07/02 00:26:18;;;;;;;15.37;14.47;;;14.20;99.90;;;;;;4991892;28;20462;-75
2022/07/02 00:28:48;;;;;;;15.37;14.13;;;14.20;99.90;;;;;;4992359;28;20538;-74
2022/07/02 00:31:15;;;;;;;14.97;14.10;;;14.20;99.90;;;;;;4991829;28;20513;-75
2022/07/02 00:33:44;;;;;;;16.00;15.20;;;14.20;99.90;;;;;;4992087;28;20494;-75
2022/07/02 00:36:21;;;;;;;15.87;14.80;;;14.20;99.90;;;;;;4991753;28;20449;-75
2022/07/02 00:38:49;;;;;;;16.00;14.83;;;14.20;99.90;;;;;;4992216;28;20478;-76
2022/07/02 00:41:16;;;;;;;15.00;14.30;;;14.20;99.90;;;;;;4991692;28;20590;-75
2022/07/02 00:43:44;;;;;;;15.10;14.30;;;14.20;99.90;;;;;;4991995;28;20501;-75
2022/07/02 00:46:14;;;;;;;14.70;13.90;;;14.10;99.90;;;;;;4991017;28;20464;-76
2022/07/02 00:48:42;;;;;;;16.30;15.30;;;14.20;99.90;;;;;;4991699;28;20502;-76
2022/07/02 00:51:09;;;;;;;14.77;13.87;;;14.20;99.90;;;;;;4992002;28;20455;-76
2022/07/02 00:53:36;;;;;;;15.93;14.80;;;14.20;99.90;;;;;;4991550;28;21052;-75
2022/07/02 00:56:04;;;;;;;15.43;14.37;;;14.10;99.90;;;;;;4991675;28;20552;-76
2022/07/02 00:58:32;;;;;;;16.07;14.90;;;14.00;99.90;;;;;;4991466;28;20462;-75
2022/07/02 01:00:59;;;;;;;15.77;14.20;;;14.00;99.90;;;;;;4991491;28;20450;-74
2022/07/02 01:03:27;;;;;;;15.63;14.80;;;14.10;99.90;;;;;;4991301;28;20454;-75
2022/07/02 01:05:55;;;;;;;15.50;14.50;;;14.10;99.90;;;;;;4991726;28;20450;-74
2022/07/02 01:11:12;;;;;;;14.30;13.50;;;14.10;99.90;;;;;;4991563;28;20434;-75
2022/07/02 01:13:40;;;;;;;15.93;14.80;;;14.10;99.90;;;;;;4991306;28;20455;-75
2022/07/02 01:16:07;;;;;;;16.10;15.20;;;14.10;99.90;;;;;;4991230;28;20490;-75
2022/07/02 01:18:34;;;;;;;16.73;15.53;;;14.10;99.90;;;;;;4991501;28;20455;-74
2022/07/02 01:21:01;;;;;;;16.10;15.10;;;14.10;99.90;;;;;;4991327;28;20490;-74
2022/07/02 01:23:29;;;;;;;17.37;16.53;;;14.00;99.90;;;;;;4991005;28;20455;-74
2022/07/02 01:25:55;;;;;;;15.90;14.93;;;13.90;99.90;;;;;;4991236;28;20514;-73
2022/07/02 01:28:23;;;;;;;17.00;16.07;;;14.00;99.90;;;;;;4991237;28;20462;-74
2022/07/02 01:30:52;;;;;;;16.30;15.40;;;14.00;99.90;;;;;;4991691;28;20486;-74
2022/07/02 01:33:19;;;;;;;15.73;14.93;;;14.00;99.90;;;;;;4991302;28;20450;-74
2022/07/02 01:35:46;;;;;;;15.57;14.30;;;14.00;99.90;;;;;;4991203;28;20494;-75
2022/07/02 01:38:12;;;;;;;15.87;14.97;;;13.90;99.90;;;;;;4991093;28;20538;-75
2022/07/02 01:40:41;;;;;;;15.03;14.23;;;13.90;99.90;;;;;;4991009;28;20490;-74
2022/07/02 01:43:08;;;;;;;14.93;14.03;;;13.90;99.90;;;;;;4991337;28;20456;-74
2022/07/02 01:45:35;;;;;;;16.50;14.83;;;13.90;99.90;;;;;;4991022;28;20483;-75
2022/07/02 01:48:02;;;;;;;14.77;13.87;;;13.80;99.90;;;;;;4991332;28;20941;-75
2022/07/02 01:50:29;;;;;;;14.10;13.17;;;13.80;99.90;;;;;;4990951;28;20453;-73
2022/07/02 01:52:56;;;;;;;15.30;14.03;;;13.80;99.90;;;;;;4991119;28;20490;-73
2022/07/02 01:55:24;;;;;;;15.10;14.20;;;13.80;99.90;;;;;;4991040;28;20577;-73
2022/07/02 01:57:52;;;;;;;13.73;13.07;;;13.80;99.90;;;;;;4993290;28;20541;-73
2022/07/02 02:00:19;;;;;;;14.17;13.40;;;13.80;99.90;;;;;;4994486;28;20751;-73
2022/07/02 02:02:47;;;;;;;14.37;13.60;;;13.70;99.90;;;;;;4994632;28;20949;-74
2022/07/02 02:05:13;;;;;;;14.77;14.00;;;13.80;99.90;;;;;;4994400;28;21048;-73
2022/07/02 02:07:40;;;;;;;14.00;13.30;;;13.70;99.90;;;;;;4994357;28;20995;-74
2022/07/02 02:10:08;;;;;;;15.03;14.17;;;13.70;99.90;;;;;;4994603;28;21015;-75
2022/07/02 02:12:35;;;;;;;16.63;15.63;;;13.80;99.90;;;;;;4994554;28;20513;-74
2022/07/02 02:15:04;;;;;;;16.00;15.10;;;13.70;99.90;;;;;;4994182;28;20497;-73
2022/07/02 02:17:31;;;;;;;15.83;14.83;;;13.70;99.90;;;;;;4994365;28;20805;-74
2022/07/02 02:19:58;;;;;;;14.60;13.90;;;13.60;99.90;;;;;;4994112;28;20459;-74
2022/07/02 02:22:24;;;;;;;15.30;13.80;;;13.60;99.90;;;;;;4994092;28;20933;-74
2022/07/02 02:24:51;;;;;;;14.50;13.50;;;13.50;99.90;;;;;;4994528;28;20478;-73
2022/07/02 02:27:18;;;;;;;13.63;12.57;;;13.50;99.90;;;;;;4994436;28;20459;-73
2022/07/02 02:29:44;;;;;;;15.13;14.07;;;13.60;99.90;;;;;;4994074;28;20451;-73
2022/07/02 02:32:14;;;;;;;14.40;13.60;;;13.60;99.90;;;;;;4993872;28;20443;-74
2022/07/02 02:34:40;;;;;;;14.80;13.90;;;13.60;99.90;;;;;;4994181;28;20462;-74
2022/07/02 02:37:07;;;;;;;15.43;14.43;;;13.50;99.90;;;;;;4994054;28;20454;-74
2022/07/02 02:39:34;;;;;;;14.93;14.07;;;13.50;99.90;;;;;;4993991;28;20498;-73
2022/07/02 02:42:00;;;;;;;14.20;13.40;;;13.50;99.90;;;;;;4993869;28;20455;-74
2022/07/02 02:44:27;;;;;;;14.47;13.73;;;13.50;99.90;;;;;;4993779;28;20455;-72
2022/07/02 02:46:54;;;;;;;14.83;13.83;;;13.50;99.90;;;;;;4993844;28;20513;-73
2022/07/02 02:49:22;;;;;;;14.80;14.00;;;13.50;99.90;;;;;;4993849;28;20451;-73
2022/07/02 02:51:48;;;;;;;15.33;13.30;;;13.50;99.90;;;;;;4993874;28;20450;-73
2022/07/02 02:54:15;;;;;;;14.27;13.57;;;13.50;99.90;;;;;;4993775;28;20517;-73
2022/07/02 02:56:42;;;;;;;15.57;14.87;;;13.40;99.90;;;;;;4993408;28;20494;-73
2022/07/02 02:59:09;;;;;;;16.43;15.30;;;13.40;99.90;;;;;;4993698;28;20454;-74
2022/07/02 03:01:35;;;;;;;15.20;14.30;;;13.40;99.90;;;;;;4993518;28;20459;-73
2022/07/02 03:04:02;;;;;;;15.03;14.33;;;13.50;99.90;;;;;;4993842;28;20451;-72
2022/07/02 03:06:30;;;;;;;15.33;14.53;;;13.40;99.90;;;;;;4993137;28;20455;-73
2022/07/02 03:08:57;;;;;;;16.97;15.50;;;13.50;99.90;;;;;;4992709;28;20459;-72
2022/07/02 03:11:23;;;;;;;14.43;13.53;;;13.40;99.90;;;;;;4993347;28;20948;-72
2022/07/02 03:13:50;;;;;;;14.97;13.97;;;13.40;99.90;;;;;;4993368;28;20529;-72
2022/07/02 03:16:16;;;;;;;16.50;15.40;;;13.30;99.90;;;;;;4993497;28;20877;-73
2022/07/02 03:18:43;;;;;;;16.07;15.07;;;13.40;99.90;;;;;;4992996;28;20459;-73
2022/07/02 03:21:10;;;;;;;16.57;15.50;;;13.30;99.90;;;;;;4993237;28;20451;-72
2022/07/02 03:23:38;;;;;;;15.50;14.60;;;13.30;99.90;;;;;;4993063;28;20940;-73
2022/07/02 03:26:04;;;;;;;15.20;14.30;;;13.30;99.90;;;;;;4993320;28;20451;-72
2022/07/02 03:28:31;;;;;;;17.20;16.30;;;13.30;99.90;;;;;;4993234;28;20458;-73
2022/07/02 03:30:58;;;;;;;15.97;14.87;;;13.30;99.90;;;;;;4992928;28;20538;-72
2022/07/02 03:33:25;;;;;;;14.77;14.10;;;13.30;99.90;;;;;;4992856;28;20447;-72
2022/07/02 03:35:51;;;;;;;17.23;16.33;;;13.30;99.90;;;;;;4992625;28;20536;-72
2022/07/02 03:38:18;;;;;;;18.43;17.00;;;13.30;99.90;;;;;;4991833;28;20475;-71
2022/07/02 03:40:46;;;;;;;17.03;15.90;;;13.40;99.90;;;;;;4991688;28;20880;-73
2022/07/02 03:43:13;;;;;;;17.40;16.50;;;13.30;99.90;;;;;;4992066;28;20447;-72
2022/07/02 03:45:39;;;;;;;17.80;16.90;;;13.30;99.90;;;;;;4992280;28;20454;-72
2022/07/02 03:48:06;;;;;;;15.60;14.70;;;13.20;99.90;;;;;;4992481;28;20451;-72
2022/07/02 03:50:37;;;;;;;17.37;16.47;;;13.30;99.90;;;;;;4992606;28;20454;-72
2022/07/02 03:53:04;;;;;;;17.60;16.60;;;13.30;99.90;;;;;;4992454;28;20447;-72
2022/07/02 03:55:31;;;;;;;18.60;17.60;;;13.30;99.90;;;;;;4992187;28;20490;-72
2022/07/02 03:57:59;;;;;;;18.83;17.50;;;13.40;99.90;;;;;;4991991;28;20520;-73
2022/07/02 04:00:26;;;;;;;17.80;16.57;;;13.30;99.90;;;;;;4992401;28;20459;-72
2022/07/02 04:02:52;;;;;;;17.80;16.70;;;13.20;99.90;;;;;;4992068;28;20833;-72
2022/07/02 04:05:19;;;;;;;19.53;18.33;;;13.20;99.90;;;;;;4992037;28;20854;-72
2022/07/02 04:07:46;;;;;;;18.70;17.70;;;13.30;99.90;;;;;;4992224;28;20451;-72
2022/07/02 04:10:12;;;;;;;18.40;17.50;;;13.30;99.90;;;;;;4992058;28;20454;-72
2022/07/02 04:12:39;;;;;;;19.67;18.37;;;13.30;99.90;;;;;;4992162;28;20451;-71
2022/07/02 04:15:08;;;;;;;21.20;19.80;;;13.30;99.90;;;;;;4992101;28;20443;-72
2022/07/02 04:17:35;;;;;;;20.60;19.60;;;13.30;99.90;;;;;;4991883;28;20462;-72
2022/07/02 04:20:01;;;;;;;19.70;18.70;;;13.40;99.90;;;;;;4991584;28;20510;-71
2022/07/02 04:22:28;;;;;;;19.50;18.43;;;13.30;99.90;;;;;;4991551;28;20446;-72
2022/07/02 04:24:55;;;;;;;22.67;21.37;;;13.40;99.90;;;;;;4991833;28;20566;-72
2022/07/02 04:27:22;;;;;;;21.43;19.93;;;13.50;99.90;;;;;;4991808;28;20457;-72
2022/07/02 04:29:48;;;;;;;21.17;19.97;;;13.90;99.90;;;;;;4985366;28;20951;-72
2022/07/02 04:32:16;;;;;;;21.37;20.07;;;14.30;99.90;;;;;;4981257;28;20857;-73
2022/07/02 04:34:43;;;;;;;19.97;18.93;;;14.70;99.90;;;;;;4986887;28;20517;-73
2022/07/02 04:37:10;;;;;;;18.60;17.50;;;15.00;99.90;;;;;;4979937;28;20478;-74
2022/07/02 04:39:37;;;;;;;17.10;16.30;;;15.30;99.90;;;;;;4981369;28;20482;-74
2022/07/02 04:42:04;;;;;;;16.20;15.30;;;15.60;99.90;;;;;;4980560;28;20447;-73
2022/07/02 04:44:30;;;;;;;15.97;15.27;;;15.80;99.90;;;;;;4980074;28;20447;-74
2022/07/02 04:46:58;;;;;;;14.80;14.10;;;16.10;99.90;;;;;;4981392;28;20442;-75
2022/07/02 04:49:26;;;;;;;14.50;13.90;;;16.20;99.90;;;;;;4980775;28;20448;-75
2022/07/02 04:51:53;;;;;;;14.73;14.03;;;16.50;99.90;;;;;;4979208;28;20484;-76
2022/07/02 04:54:20;;;;;;;14.13;13.47;;;16.80;99.90;;;;;;4981446;28;20501;-76
2022/07/02 04:56:48;;;;;;;13.67;12.97;;;17.30;99.90;;;;;;4980799;28;20510;-77
2022/07/02 04:59:15;;;;;;;13.70;13.20;;;17.80;99.90;;;;;;4972333;28;20476;-76
2022/07/02 05:01:42;;;;;;;14.07;13.40;;;18.00;99.90;;;;;;4972211;28;20471;-76
2022/07/02 05:04:09;;;;;;;13.90;12.93;;;18.20;99.90;;;;;;4972770;28;20455;-77
2022/07/02 05:06:37;;;;;;;13.40;12.60;;;18.20;99.90;;;;;;4972625;28;20934;-77
2022/07/02 05:09:04;;;;;;;12.50;11.90;;;18.40;99.90;;;;;;4972051;28;20455;-75
2022/07/02 05:11:31;;;;;;;13.83;13.23;;;18.50;99.90;;;;;;4971901;28;20479;-76
2022/07/02 05:13:58;;;;;;;12.80;12.13;;;18.70;99.90;;;;;;4972297;28;20460;-76
2022/07/02 05:16:24;;;;;;;14.60;13.90;;;18.90;99.90;;;;;;4971645;28;20538;-76
2022/07/02 05:18:51;;;;;;;13.13;12.43;;;18.80;99.90;;;;;;4971844;28;20455;-76
2022/07/02 05:21:18;;;;;;;12.80;12.00;;;19.00;99.90;;;;;;4971974;28;20896;-76
2022/07/02 05:23:46;;;;;;;12.23;11.73;;;19.10;99.90;;;;;;4971974;28;20958;-76
2022/07/02 05:26:13;;;;;;;13.47;12.67;;;19.30;99.90;;;;;;4971866;28;20510;-76
2022/07/02 05:28:39;;;;;;;12.10;11.60;;;19.30;99.90;;;;;;4971719;28;20506;-78
2022/07/02 05:31:06;;;;;;;12.80;12.20;;;19.50;99.90;;;;;;4971763;28;20577;-78
2022/07/02 05:33:33;;;;;;;12.50;12.00;;;19.80;99.90;;;;;;4974964;28;20456;-77
2022/07/02 05:35:59;;;;;;;12.50;11.90;;;20.20;99.90;;;;;;4975392;28;20500;-76
2022/07/02 05:38:26;;;;;;;11.90;11.40;;;20.50;99.90;;;;;;4975425;28;20471;-75
2022/07/02 05:40:54;;;;;;;12.70;12.20;;;20.60;99.90;;;;;;4975331;28;20483;-77
2022/07/02 05:43:20;;;;;;;12.90;12.40;;;20.70;99.90;;;;;;4975405;28;20455;-77
2022/07/02 05:45:49;;;;;;;12.50;11.70;;;20.80;99.90;;;;;;4975480;28;20456;-78
2022/07/02 05:48:16;;;;;;;12.13;11.63;;;20.90;99.90;;;;;;4975306;28;20506;-79
2022/07/02 05:50:43;;;;;;;12.40;11.70;;;21.00;99.90;;;;;;4975772;28;20451;-81
2022/07/02 05:53:09;;;;;;;11.30;10.80;;;20.90;99.90;;;;;;4975319;28;20455;-77
2022/07/02 05:55:36;;;;;;;12.67;11.97;;;20.80;99.90;;;;;;4975297;28;20460;-76
2022/07/02 05:58:04;;;;;;;11.87;11.37;;;21.10;99.90;;;;;;4975544;28;20464;-76
2022/07/02 06:00:31;;;;;;;12.40;11.90;;;21.30;99.90;;;;;;4975422;28;20815;-79
2022/07/02 06:02:58;;;;;;;11.77;11.37;;;21.60;99.90;;;;;;4975503;28;20468;-79
2022/07/02 06:08:08;;;;;;;12.23;11.63;;;22.60;99.90;;;;;;4975515;28;20964;-79
2022/07/02 06:10:35;;;;;;;12.03;11.43;;;22.70;99.90;;;;;;4975187;28;20514;-79
2022/07/02 06:13:02;;;;;;;11.70;11.30;;;22.90;99.90;;;;;;4975017;28;20451;-78
2022/07/02 06:15:30;;;;;;;12.83;12.13;;;23.30;99.90;;;;;;4975011;28;20459;-79
2022/07/02 06:18:00;;;;;;;12.90;12.07;;;23.30;99.90;;;;;;4974737;28;21067;-78
2022/07/02 06:20:27;;;;;;;11.60;11.13;;;23.60;99.90;;;;;;4975183;28;20459;-78
2022/07/02 06:22:54;;;;;;;11.80;11.20;;;23.90;99.90;;;;;;4974850;28;20459;-79
2022/07/02 06:25:21;;;;;;;11.93;11.40;;;24.10;99.90;;;;;;4974807;28;20460;-78
2022/07/02 06:27:48;;;;;;;10.87;10.47;;;24.10;99.90;;;;;;4974966;28;20455;-76
2022/07/02 06:30:16;;;;;;;11.60;11.17;;;24.30;99.90;;;;;;4974506;28;20487;-76
2022/07/02 06:32:44;;;;;;;11.77;11.10;;;24.20;99.90;;;;;;4974860;28;20535;-76
2022/07/02 06:35:11;;;;;;;11.50;11.10;;;24.00;99.90;;;;;;4974958;28;20462;-80
2022/07/02 06:37:38;;;;;;;11.03;10.53;;;23.80;99.90;;;;;;4974850;28;20586;-77
2022/07/02 06:40:06;;;;;;;11.53;11.03;;;24.50;99.90;;;;;;4974628;28;20494;-76
2022/07/02 06:42:33;;;;;;;11.63;11.23;;;25.00;98.60;;;;;;4974736;28;20498;-75
2022/07/02 06:45:00;;;;;;;11.33;10.70;;;25.40;96.70;;;;;;4973532;28;20452;-76
2022/07/02 06:47:28;;;;;;;12.00;11.50;;;25.40;96.50;;;;;;4974570;28;20463;-79
2022/07/02 06:49:57;;;;;;;11.60;10.97;;;25.00;97.10;;;;;;4974388;28;20993;-77
2022/07/02 06:52:24;;;;;;;11.03;10.40;;;24.90;97.60;;;;;;4974477;28;20499;-76
2022/07/02 06:54:51;;;;;;;11.20;10.77;;;25.50;96.50;;;;;;4974159;28;20455;-76
2022/07/02 06:57:18;;;;;;;11.00;10.50;;;26.10;95.50;;;;;;4974754;28;20553;-75
2022/07/02 06:59:45;;;;;;;11.30;10.90;;;26.40;94.30;;;;;;4974316;28;21090;-75
2022/07/02 07:02:30;;;;;;;11.30;10.90;;;26.70;93.10;;;;;;4974183;28;20460;-72
2022/07/02 07:04:58;;;;;;;10.40;10.10;;;26.80;92.70;;;;;;4967541;28;20582;-75
2022/07/02 07:07:27;;;;;;;11.27;10.87;;;26.90;92.30;;;;;;4973589;28;20455;-75
2022/07/02 07:09:54;;;;;;;11.43;10.93;;;27.10;91.20;;;;;;4973406;28;20458;-75
2022/07/02 07:12:21;;;;;;;10.63;10.33;;;27.00;91.20;;;;;;4973426;28;20510;-75
2022/07/02 07:14:48;;;;;;;11.30;10.90;;;26.70;91.70;;;;;;4973447;28;20446;-75
2022/07/02 07:17:16;;;;;;;11.47;10.83;;;27.00;91.40;;;;;;4973450;28;20498;-75
2022/07/02 07:19:43;;;;;;;11.20;10.70;;;27.00;91.00;;;;;;4973180;28;20519;-75
2022/07/02 07:22:11;;;;;;;11.40;11.00;;;26.70;91.20;;;;;;4973166;28;21190;-76
2022/07/02 07:24:37;;;;;;;12.43;11.93;;;26.80;90.90;;;;;;4973113;28;20470;-75
2022/07/02 07:27:04;;;;;;;11.13;10.77;;;26.60;91.00;;;;;;4973401;28;20451;-74
2022/07/02 07:29:31;;;;;;;11.47;10.87;;;26.70;90.50;;;;;;4973170;28;20985;-75
2022/07/02 07:31:57;;;;;;;11.10;10.70;;;26.80;90.30;;;;;;4972872;28;21013;-75
2022/07/02 07:34:24;;;;;;;10.70;10.40;;;26.30;91.20;;;;;;4972755;28;20511;-75
2022/07/02 07:36:53;;;;;;;10.97;10.57;;;26.50;90.60;;;;;;4973078;28;20546;-75
2022/07/02 07:39:21;;;;;;;10.70;10.40;;;26.50;90.40;;;;;;4972900;28;20483;-75
2022/07/02 07:41:47;;;;;;;10.70;10.20;;;26.30;88.10;;;;;;4973148;28;20464;-75
2022/07/02 07:44:14;;;;;;;10.30;9.90;;;25.70;88.40;;;;;;4972658;28;20466;-74
2022/07/02 07:46:40;;;;;;;11.40;10.97;;;25.60;90.50;;;;;;4972714;28;20784;-74
2022/07/02 07:49:07;;;;;;;12.23;11.83;;;26.00;90.30;;;;;;4972624;28;20462;-75
2022/07/02 07:51:34;;;;;;;10.80;10.40;;;26.60;89.00;;;;;;4972843;28;20502;-75
2022/07/02 07:54:00;;;;;;;11.50;11.10;;;26.20;89.20;;;;;;4972757;28;20456;-75
2022/07/02 07:56:29;;;;;;;11.00;10.53;;;26.20;89.60;;;;;;4972481;28;20494;-74
2022/07/02 07:58:56;;;;;;;10.80;10.50;;;26.60;85.80;;;;;;4972582;28;20479;-74
2022/07/02 08:01:22;;;;;;;10.27;9.87;;;26.40;84.10;;;;;;4972336;28;20456;-74
2022/07/02 08:03:49;;;;;;;11.50;11.10;;;26.30;85.30;;;;;;4972725;28;20455;-74
2022/07/02 08:06:16;;;;;;;10.90;10.50;;;26.20;85.10;;;;;;4972641;28;20456;-74
2022/07/02 08:08:43;;;;;;;11.60;11.20;;;26.90;84.60;;;;;;4972513;28;20491;-74
2022/07/02 08:11:09;;;;;;;10.87;10.47;;;27.20;83.90;;;;;;4972383;28;20613;-74
2022/07/02 08:13:37;;;;;;;11.40;11.00;;;27.10;80.40;;;;;;4972241;28;20456;-73
2022/07/02 08:16:04;;;;;;;11.60;11.20;;;27.20;77.30;;;;;;4972597;28;20479;-73
2022/07/02 08:18:32;;;;;;;11.60;11.10;;;27.10;78.20;;;;;;4972366;28;20487;-74
2022/07/02 08:20:59;;;;;;;10.63;10.33;;;27.30;76.90;;;;;;4972130;28;20455;-74
2022/07/02 08:23:26;;;;;;;11.30;10.90;;;26.70;76.30;;;;;;4972146;28;20867;-74
2022/07/02 08:25:54;;;;;;;11.10;10.80;;;26.90;76.80;;;;;;4971843;28;20487;-73
2022/07/02 08:28:21;;;;;;;11.53;11.13;;;26.30;78.10;;;;;;4972199;28;20510;-74
2022/07/02 08:30:49;;;;;;;11.23;10.83;;;26.40;79.80;;;;;;4972207;28;20463;-74
2022/07/02 08:33:16;;;;;;;11.70;11.30;;;26.10;79.10;;;;;;4971989;28;20455;-75
2022/07/02 08:35:43;;;;;;;11.27;10.87;;;26.00;77.70;;;;;;4971714;28;20861;-74
2022/07/02 08:38:10;;;;;;;11.03;10.73;;;25.90;78.10;;;;;;4971576;28;21059;-74
2022/07/02 08:40:37;;;;;;;11.50;11.10;;;25.90;77.60;;;;;;4971821;28;20483;-74
2022/07/02 08:43:06;;;;;;;10.77;10.37;;;26.40;77.40;;;;;;4972105;28;20968;-74
2022/07/02 08:45:33;;;;;;;11.80;11.40;;;26.90;75.50;;;;;;4971907;28;20459;-74
2022/07/02 08:48:05;;;;;;;11.10;10.70;;;26.70;74.30;;;;;;4971745;28;20495;-74
2022/07/02 08:50:31;;;;;;;10.37;10.07;;;26.60;75.80;;;;;;4972004;28;20455;-74
2022/07/02 08:52:58;;;;;;;10.93;10.53;;;26.80;75.50;;;;;;4971971;28;20531;-74
2022/07/02 08:55:24;;;;;;;11.70;11.30;;;27.80;72.80;;;;;;4971717;28;20581;-74
2022/07/02 08:57:52;;;;;;;11.47;11.17;;;28.10;70.50;;;;;;4971682;28;20506;-74
2022/07/02 09:00:20;;;;;;;11.33;10.93;;;28.10;69.10;;;;;;4971784;28;20503;-74
2022/07/02 09:02:51;;;;;;;13.23;12.83;;;27.80;70.10;;;;;;4971949;28;20456;-74
2022/07/02 09:05:21;;;;;;;12.40;11.90;;;27.90;71.40;;;;;;4971949;28;20462;-74
2022/07/02 09:07:48;;;;;;;11.87;11.47;;;28.20;70.50;;;;;;4976425;28;20953;-74
2022/07/02 09:10:17;;;;;;;11.10;10.70;;;28.10;71.00;;;;;;4978122;28;20455;-75
2022/07/02 09:12:44;;;;;;;12.03;11.63;;;28.40;70.50;;;;;;4978049;28;20471;-74
2022/07/02 09:15:12;;;;;;;12.67;11.93;;;28.90;67.70;;;;;;4977612;28;20455;-75
2022/07/02 09:17:40;;;;;;;11.50;11.20;;;28.90;65.10;;;;;;4977791;28;20514;-74
2022/07/02 09:20:09;;;;;;;11.00;10.60;;;28.00;64.80;;;;;;4977841;28;20994;-75
2022/07/02 09:22:40;;;;;;;11.00;10.70;;;27.60;63.40;;;;;;4977810;28;20542;-75
2022/07/02 09:25:12;;;;;;;11.47;11.07;;;27.90;62.80;;;;;;4977897;28;20455;-74
2022/07/02 09:27:39;;;;;;;11.70;11.30;;;27.90;61.80;;;;;;4977853;28;20459;-75
2022/07/02 09:30:08;;;;;;;11.40;11.00;;;27.50;60.60;;;;;;4977711;28;20452;-74
2022/07/02 09:32:40;;;;;;;11.43;11.03;;;27.60;59.60;;;;;;4978028;28;20502;-75
2022/07/02 09:35:07;;;;;;;11.37;10.83;;;27.90;60.00;;;;;;4977974;28;20508;-75
2022/07/02 09:37:34;;;;;;;11.60;11.20;;;28.10;59.10;;;;;;4977541;28;20483;-75
2022/07/02 09:40:04;;;;;;;11.03;10.53;;;27.10;58.00;;;;;;4977500;28;20526;-75
2022/07/02 09:42:33;;;;;;;11.10;10.80;;;26.70;59.70;;;;;;4977786;28;20455;-75
2022/07/02 09:45:01;;;;;;;11.83;11.30;;;27.10;59.50;;;;;;4977812;28;20450;-74
2022/07/02 09:47:32;;;;;;;11.40;11.00;;;27.40;59.90;;;;;;4977450;28;20474;-74
2022/07/02 09:50:03;;;;;;;12.10;11.60;;;27.40;59.70;;;;;;4977568;28;20447;-75
2022/07/02 09:52:30;;;;;;;11.00;10.60;;;27.80;62.10;;;;;;4977811;28;20459;-75
2022/07/02 09:54:57;;;;;;;11.20;10.80;;;27.90;60.10;;;;;;4977512;28;20534;-75
2022/07/02 09:57:26;;;;;;;11.30;10.90;;;27.40;63.10;;;;;;4977284;28;20499;-75
2022/07/02 09:59:53;;;;;;;11.07;10.67;;;27.20;61.70;;;;;;4977394;28;20542;-76
2022/07/02 10:02:23;;;;;;;11.80;11.40;;;27.60;62.60;;;;;;4977647;28;20894;-75
2022/07/02 10:04:54;;;;;;;12.10;11.53;;;28.60;59.50;;;;;;4977515;28;20487;-76
2022/07/02 10:07:22;;;;;;;11.97;11.57;;;28.50;57.60;;;;;;4977450;28;20540;-75
2022/07/02 10:09:49;;;;;;;11.93;11.53;;;28.30;58.30;;;;;;4977589;28;20937;-75
2022/07/02 10:12:17;;;;;;;11.40;11.00;;;28.50;58.70;;;;;;4977705;28;20498;-75
2022/07/02 10:14:47;;;;;;;10.93;10.63;;;28.80;57.70;;;;;;4977244;28;20463;-75
2022/07/02 10:17:15;;;;;;;12.43;12.03;;;28.20;58.80;;;;;;4977126;28;20487;-75
2022/07/02 10:19:42;;;;;;;12.30;11.80;;;28.40;58.40;;;;;;4974449;28;20458;-76
2022/07/02 10:22:09;;;;;;;11.43;10.97;;;28.50;58.40;;;;;;4974282;28;20560;-76
2022/07/02 10:24:37;;;;;;;11.73;11.33;;;28.30;58.80;;;;;;4974463;28;20518;-76
2022/07/02 10:27:04;;;;;;;11.83;11.43;;;28.70;58.00;;;;;;4974461;28;20487;-75
2022/07/02 10:29:31;;;;;;;10.80;10.50;;;28.50;59.30;;;;;;4974192;28;20866;-76
2022/07/02 10:32:10;;;;;;;11.20;10.83;;;28.80;57.20;;;;;;4974133;28;20460;-75
2022/07/02 10:34:48;;;;;;;11.60;11.20;;;28.30;57.10;;;;;;4974110;28;20853;-76
2022/07/02 10:37:16;;;;;;;11.37;10.97;;;28.80;57.00;;;;;;4970584;28;20566;-77
2022/07/02 10:39:43;;;;;;;11.20;10.80;;;28.70;56.90;;;;;;4973871;28;20491;-76
2022/07/02 10:42:11;;;;;;;11.40;11.00;;;28.60;55.80;;;;;;4973946;28;20510;-76
2022/07/02 10:44:39;;;;;;;11.73;11.43;;;28.30;57.40;;;;;;4973741;28;20466;-76
2022/07/02 10:47:17;;;;;;;12.40;11.80;;;28.60;55.30;;;;;;4973765;28;20958;-76
2022/07/02 10:49:43;;;;;;;11.60;11.30;;;28.20;57.20;;;;;;4973409;28;20498;-75
2022/07/02 10:52:10;;;;;;;11.80;11.40;;;28.10;57.00;;;;;;4973797;28;20456;-76
2022/07/02 10:54:37;;;;;;;11.70;11.30;;;28.40;57.30;;;;;;4973653;28;20530;-76
2022/07/02 10:57:04;;;;;;;11.37;11.07;;;28.60;56.90;;;;;;4973845;28;20950;-75
2022/07/02 10:59:36;;;;;;;11.20;10.90;;;28.30;55.90;;;;;;4973504;28;20980;-76
2022/07/02 11:02:04;;;;;;;10.70;10.40;;;27.90;55.20;;;;;;4973863;28;20464;-76
2022/07/02 11:04:33;;;;;;;11.83;11.40;;;27.90;56.50;;;;;;4973705;28;20444;-76
2022/07/02 11:07:07;;;;;;;11.87;11.47;;;27.80;57.40;;;;;;4973500;28;20502;-76
2022/07/02 11:09:44;;;;;;;11.53;11.23;;;27.60;56.60;;;;;;4973765;28;20823;-75
2022/07/02 11:12:13;;;;;;;11.30;11.00;;;27.20;57.10;;;;;;4973597;28;20522;-76
2022/07/02 11:14:46;;;;;;;11.20;10.80;;;27.70;57.90;;;;;;4973177;28;20460;-76
2022/07/02 11:17:19;;;;;;;11.83;11.43;;;27.70;56.60;;;;;;4973410;28;20463;-75
2022/07/02 11:19:53;;;;;;;11.70;11.30;;;27.90;56.40;;;;;;4973496;28;20464;-76
2022/07/02 11:22:19;;;;;;;12.00;11.60;;;28.80;56.00;;;;;;4973559;28;20819;-76
2022/07/02 11:24:47;;;;;;;11.30;10.90;;;29.10;55.60;;;;;;4973386;28;20871;-76
2022/07/02 11:27:15;;;;;;;11.17;10.57;;;29.30;54.70;;;;;;4973123;28;20451;-76
2022/07/02 11:29:52;;;;;;;11.27;10.93;;;28.90;55.40;;;;;;4972305;28;20876;-76
2022/07/02 11:32:19;;;;;;;11.40;11.00;;;29.20;54.10;;;;;;4973315;28;20467;-76
2022/07/02 11:34:47;;;;;;;10.90;10.60;;;29.00;53.40;;;;;;4973353;28;20459;-77
2022/07/02 11:37:21;;;;;;;11.47;10.97;;;28.90;52.30;;;;;;4973009;28;20514;-76
2022/07/02 11:39:48;;;;;;;11.20;10.90;;;28.20;55.50;;;;;;4973072;28;20541;-75
2022/07/02 11:42:14;;;;;;;11.03;10.73;;;28.00;53.40;;;;;;4972836;28;20886;-75
2022/07/02 11:44:41;;;;;;;11.07;10.67;;;28.00;54.70;;;;;;4972625;28;20456;-75
2022/07/02 11:47:08;;;;;;;11.70;11.30;;;29.10;53.90;;;;;;4971213;28;20996;-76
2022/07/02 11:49:36;;;;;;;11.80;11.40;;;29.80;52.20;;;;;;4973012;28;20450;-75
2022/07/02 11:52:06;;;;;;;11.23;10.93;;;29.90;51.90;;;;;;4973053;28;20519;-75
2022/07/02 11:54:33;;;;;;;10.90;10.60;;;29.30;52.30;;;;;;4972493;28;20844;-75
2022/07/02 11:57:00;;;;;;;11.20;10.90;;;28.90;52.90;;;;;;4972422;28;20462;-75
2022/07/02 11:59:27;;;;;;;11.20;10.80;;;29.20;51.50;;;;;;4972159;28;20545;-76
2022/07/02 12:01:54;;;;;;;11.60;11.20;;;29.80;52.20;;;;;;4972071;28;20455;-75
2022/07/02 12:04:23;;;;;;;12.20;11.80;;;30.30;49.90;;;;;;4972565;28;20448;-76
2022/07/02 12:06:52;;;;;;;12.03;11.53;;;30.90;50.30;;;;;;4972175;28;20451;-76
2022/07/02 12:09:23;;;;;;;11.70;11.30;;;30.10;50.80;;;;;;4972330;28;20813;-76
2022/07/02 12:11:51;;;;;;;12.10;11.70;;;29.40;51.80;;;;;;4972398;28;20551;-76
2022/07/02 12:14:24;;;;;;;11.77;11.37;;;29.70;52.60;;;;;;4972466;28;20459;-76
2022/07/02 12:16:52;;;;;;;10.57;10.27;;;29.30;52.30;;;;;;4972052;28;20455;-76
2022/07/02 12:19:19;;;;;;;12.00;11.60;;;29.30;51.60;;;;;;4970532;28;20483;-76
2022/07/02 12:21:47;;;;;;;12.10;11.70;;;29.30;53.20;;;;;;4971781;28;21083;-77
2022/07/02 12:24:24;;;;;;;12.50;12.10;;;29.60;52.90;;;;;;4971996;28;20464;-76
2022/07/02 12:26:52;;;;;;;12.47;11.97;;;30.20;52.80;;;;;;4971991;28;20502;-77
2022/07/02 12:32:08;;;;;;;12.20;11.80;;;31.10;50.20;;;;;;4972191;28;20431;-76
2022/07/02 12:34:39;;;;;;;12.90;12.50;;;30.50;53.10;;;;;;4971991;28;20955;-76
2022/07/02 12:37:07;;;;;;;12.83;12.43;;;30.10;51.30;;;;;;4971976;28;20973;-76
2022/07/02 12:39:44;;;;;;;12.73;12.33;;;29.80;52.10;;;;;;4971675;28;20562;-76